createdAt,value
2017-08-24T00:00:26.343Z,22.70
2017-08-24T00:02:54.712Z,22.80
2017-08-24T00:12:52.414Z,22.80
2017-08-24T00:15:20.723Z,22.70
2017-08-24T00:20:18.570Z,22.70
2017-08-24T00:25:16.838Z,22.60
2017-08-24T00:30:15.062Z,22.50
2017-08-24T00:35:13.671Z,22.50
2017-08-24T00:37:42.012Z,22.50
2017-08-24T00:40:10.339Z,22.50
2017-08-24T00:42:38.637Z,22.50
2017-08-24T00:45:08.496Z,22.50
2017-08-24T00:47:36.851Z,22.50
2017-08-24T00:52:36.224Z,22.50
2017-08-24T00:55:06.077Z,22.50
2017-08-24T00:57:34.374Z,22.50
2017-08-24T01:00:02.716Z,22.50
2017-08-24T01:02:31.058Z,22.50
2017-08-24T01:05:00.855Z,22.50
2017-08-24T01:07:29.171Z,22.50
2017-08-24T01:09:57.490Z,22.40
2017-08-24T01:12:25.772Z,22.50
2017-08-24T01:14:55.218Z,22.50
2017-08-24T01:17:23.547Z,22.50
2017-08-24T01:19:51.838Z,22.50
2017-08-24T01:24:50.475Z,22.40
2017-08-24T01:27:20.263Z,22.50
2017-08-24T01:29:48.595Z,22.40
2017-08-24T01:32:16.923Z,22.40
2017-08-24T01:34:45.971Z,22.40
2017-08-24T01:37:14.263Z,22.30
2017-08-24T01:39:44.103Z,22.30
2017-08-24T01:42:12.392Z,22.30
2017-08-24T01:47:10.683Z,22.20
2017-08-24T01:49:38.984Z,22.20
2017-08-24T01:52:07.282Z,22.20
2017-08-24T01:54:35.656Z,22.20
2017-08-24T01:57:03.966Z,22.20
2017-08-24T01:59:33.404Z,22.10
2017-08-24T02:02:01.743Z,22.00
2017-08-24T02:04:30.015Z,21.90
2017-08-24T02:09:28.252Z,21.70
2017-08-24T02:11:56.522Z,21.70
2017-08-24T02:14:24.818Z,21.70
2017-08-24T02:16:53.924Z,21.60
2017-08-24T02:19:22.205Z,21.60
2017-08-24T02:21:50.480Z,21.60
2017-08-24T02:26:48.754Z,21.40
2017-08-24T02:29:18.162Z,21.30
2017-08-24T02:31:46.503Z,21.20
2017-08-24T02:36:44.663Z,21.20
2017-08-24T02:39:13.389Z,21.20
2017-08-24T02:41:41.675Z,21.10
2017-08-24T02:44:09.967Z,21.10
2017-08-24T02:46:39.834Z,21.00
2017-08-24T02:51:38.449Z,21.00
2017-08-24T02:54:06.807Z,20.90
2017-08-24T02:56:35.506Z,20.90
2017-08-24T02:59:03.814Z,20.90
2017-08-24T03:01:32.139Z,20.80
2017-08-24T03:04:01.935Z,20.80
2017-08-24T03:06:30.223Z,20.80
2017-08-24T03:08:58.562Z,20.70
2017-08-24T03:11:26.851Z,20.70
2017-08-24T03:13:56.275Z,20.70
2017-08-24T03:16:24.610Z,20.60
2017-08-24T03:18:52.912Z,20.50
2017-08-24T03:21:21.190Z,20.40
2017-08-24T03:23:49.518Z,20.50
2017-08-24T03:26:17.798Z,20.50
2017-08-24T03:28:47.586Z,20.40
2017-08-24T03:31:15.924Z,20.40
2017-08-24T03:36:15.234Z,20.30
2017-08-24T03:38:43.562Z,20.20
2017-08-24T03:41:11.854Z,20.10
2017-08-24T03:43:41.647Z,20.10
2017-08-24T03:46:10.004Z,20.10
2017-08-24T03:48:38.310Z,20.10
2017-08-24T03:51:06.757Z,20.10
2017-08-24T03:53:35.215Z,20.00
2017-08-24T03:56:03.518Z,19.90
2017-08-24T03:58:32.584Z,19.90
2017-08-24T04:01:00.924Z,19.90
2017-08-24T04:03:29.199Z,19.80
2017-08-24T04:05:57.879Z,19.70
2017-08-24T04:08:27.731Z,19.80
2017-08-24T04:13:25.927Z,19.80
2017-08-24T04:15:54.260Z,19.70
2017-08-24T04:18:22.562Z,19.70
2017-08-24T04:20:51.613Z,19.70
2017-08-24T04:23:20.711Z,19.70
2017-08-24T04:25:49.748Z,19.60
2017-08-24T04:28:18.030Z,19.60
2017-08-24T04:30:46.356Z,19.50
2017-08-24T04:33:14.634Z,19.40
2017-08-24T04:35:44.051Z,19.40
2017-08-24T04:38:12.687Z,19.40
2017-08-24T04:40:40.962Z,19.40
2017-08-24T04:43:10.747Z,19.40
2017-08-24T04:45:39.135Z,19.40
2017-08-24T04:48:07.432Z,19.40
2017-08-24T04:50:35.719Z,19.40
2017-08-24T04:55:33.726Z,19.40
2017-08-24T04:58:02.014Z,19.40
2017-08-24T05:00:31.121Z,19.40
2017-08-24T05:05:29.296Z,19.30
2017-08-24T05:07:57.651Z,19.30
2017-08-24T05:12:55.835Z,19.40
2017-08-24T05:15:24.175Z,19.30
2017-08-24T05:17:52.455Z,19.30
2017-08-24T05:20:20.730Z,19.30
2017-08-24T05:22:49.058Z,19.30
2017-08-24T05:25:17.342Z,19.20
2017-08-24T05:27:46.752Z,19.30
2017-08-24T05:30:15.106Z,19.30
2017-08-24T05:32:43.386Z,19.30
2017-08-24T05:35:11.666Z,19.40
2017-08-24T05:37:40.007Z,19.40
2017-08-24T05:40:09.798Z,19.30
2017-08-24T05:42:38.096Z,19.40
2017-08-24T05:45:07.204Z,19.30
2017-08-24T05:47:35.503Z,19.40
2017-08-24T05:50:03.803Z,19.40
2017-08-24T05:52:32.143Z,19.40
2017-08-24T05:55:00.472Z,19.40
2017-08-24T05:57:29.883Z,19.40
2017-08-24T05:59:58.220Z,19.40
2017-08-24T06:02:27.269Z,19.50
2017-08-24T06:04:56.314Z,19.40
2017-08-24T06:07:24.660Z,19.40
2017-08-24T06:09:52.952Z,19.30
2017-08-24T06:12:21.227Z,19.30
2017-08-24T06:14:49.558Z,19.30
2017-08-24T06:17:17.833Z,19.30
2017-08-24T06:19:46.879Z,19.40
2017-08-24T06:22:16.004Z,19.40
2017-08-24T06:24:45.054Z,19.50
2017-08-24T06:27:13.331Z,19.50
2017-08-24T06:29:41.690Z,19.50
2017-08-24T06:32:10.004Z,19.50
2017-08-24T06:34:39.805Z,19.60
2017-08-24T06:37:08.177Z,19.60
2017-08-24T06:39:36.477Z,19.60
2017-08-24T06:42:04.770Z,19.60
2017-08-24T06:44:34.674Z,19.60
2017-08-24T06:47:03.002Z,19.60
2017-08-24T06:49:31.286Z,19.70
2017-08-24T06:52:00.757Z,19.70
2017-08-24T06:54:29.040Z,19.70
2017-08-24T06:56:57.320Z,19.70
2017-08-24T07:01:55.571Z,19.80
2017-08-24T07:04:23.868Z,19.80
2017-08-24T07:06:52.978Z,19.90
2017-08-24T07:09:21.259Z,19.90
2017-08-24T07:11:49.543Z,20.00
2017-08-24T07:14:19.396Z,20.00
2017-08-24T07:16:47.671Z,20.10
2017-08-24T07:19:15.961Z,20.00
2017-08-24T07:21:44.296Z,20.10
2017-08-24T07:24:12.599Z,20.10
2017-08-24T07:26:42.050Z,20.20
2017-08-24T07:29:10.439Z,20.20
2017-08-24T07:31:38.760Z,20.30
2017-08-24T07:34:07.087Z,20.40
2017-08-24T07:36:35.476Z,20.50
2017-08-24T07:39:04.942Z,20.40
2017-08-24T07:41:33.230Z,20.40
2017-08-24T07:44:02.702Z,20.40
2017-08-24T07:46:31.766Z,20.50
2017-08-24T07:51:31.116Z,20.60
2017-08-24T07:53:59.404Z,20.60
2017-08-24T07:58:57.285Z,20.60
2017-08-24T08:01:25.566Z,20.70
2017-08-24T08:03:54.264Z,20.70
2017-08-24T08:06:23.759Z,20.80
2017-08-24T08:08:52.039Z,20.90
2017-08-24T08:11:20.327Z,20.90
2017-08-24T08:13:48.662Z,20.90
2017-08-24T08:16:16.956Z,20.90
2017-08-24T08:18:46.746Z,21.00
2017-08-24T08:21:15.096Z,21.00
2017-08-24T08:23:43.398Z,21.00
2017-08-24T08:26:12.488Z,21.00
2017-08-24T08:28:40.845Z,21.20
2017-08-24T08:33:39.452Z,21.20
2017-08-24T08:36:08.985Z,21.20
2017-08-24T08:38:37.287Z,21.30
2017-08-24T08:41:05.647Z,21.30
2017-08-24T08:43:35.547Z,21.30
2017-08-24T08:46:03.850Z,21.30
2017-08-24T08:48:33.675Z,21.20
2017-08-24T08:51:02.055Z,21.20
2017-08-24T08:53:30.351Z,21.20
2017-08-24T08:55:58.634Z,21.10
2017-08-24T08:58:28.484Z,21.10
2017-08-24T09:00:56.784Z,21.20
2017-08-24T09:03:25.063Z,21.20
2017-08-24T09:05:54.171Z,21.20
2017-08-24T09:08:22.456Z,21.20
2017-08-24T09:13:20.719Z,21.40
2017-08-24T09:15:49.015Z,21.40
2017-08-24T09:18:17.303Z,21.50
2017-08-24T09:20:45.650Z,21.50
2017-08-24T09:23:15.079Z,21.60
2017-08-24T09:25:43.763Z,21.70
2017-08-24T09:28:12.143Z,21.70
2017-08-24T09:30:40.479Z,21.70
2017-08-24T09:33:09.558Z,21.80
2017-08-24T09:35:38.669Z,21.80
2017-08-24T09:38:08.111Z,22.00
2017-08-24T09:40:36.504Z,22.10
2017-08-24T09:43:04.964Z,22.20
2017-08-24T09:45:34.032Z,22.40
2017-08-24T09:50:32.311Z,22.70
2017-08-24T09:53:00.604Z,22.80
2017-08-24T09:55:30.405Z,22.90
2017-08-24T10:00:29.034Z,23.20
2017-08-24T10:02:57.322Z,23.30
2017-08-24T10:05:25.676Z,23.60
2017-08-24T10:07:54.883Z,23.80
2017-08-24T10:10:23.170Z,23.90
2017-08-24T10:15:21.776Z,23.90
2017-08-24T10:17:50.069Z,24.00
2017-08-24T10:22:48.340Z,23.90
2017-08-24T10:25:16.614Z,23.90
2017-08-24T10:27:44.962Z,23.90
2017-08-24T10:30:13.247Z,23.90
2017-08-24T10:32:42.316Z,24.00
2017-08-24T10:35:10.682Z,23.90
2017-08-24T10:37:40.488Z,24.00
2017-08-24T10:40:09.512Z,24.00
2017-08-24T10:42:38.623Z,24.00
2017-08-24T10:45:06.941Z,24.00
2017-08-24T10:47:35.231Z,24.00
2017-08-24T10:50:03.980Z,23.90
2017-08-24T10:52:33.026Z,24.00
2017-08-24T10:57:31.663Z,24.50
2017-08-24T11:05:00.230Z,25.20
2017-08-24T11:07:28.517Z,25.10
2017-08-24T11:09:56.829Z,25.20
2017-08-24T11:12:25.911Z,25.30
2017-08-24T11:14:54.191Z,25.50
2017-08-24T11:19:52.065Z,25.70
2017-08-24T11:22:20.351Z,25.80
2017-08-24T11:24:48.670Z,25.90
2017-08-24T11:27:17.747Z,26.10
2017-08-24T11:29:46.787Z,26.20
2017-08-24T11:32:15.102Z,26.40
2017-08-24T11:34:44.182Z,26.40
2017-08-24T11:37:32.701Z,26.50
2017-08-24T11:40:01.414Z,26.30
2017-08-24T11:42:30.078Z,26.30
2017-08-24T11:44:58.434Z,26.40
2017-08-24T11:47:26.727Z,26.40
2017-08-24T11:49:55.771Z,26.50
2017-08-24T11:52:24.866Z,26.60
2017-08-24T11:54:53.975Z,26.80
2017-08-24T11:57:23.048Z,27.00
2017-08-24T11:59:52.123Z,26.90
2017-08-24T12:02:20.438Z,27.00
2017-08-24T12:04:48.716Z,27.10
2017-08-24T12:09:46.598Z,27.50
2017-08-24T12:12:14.875Z,27.50
2017-08-24T12:14:43.187Z,27.60
2017-08-24T12:17:11.500Z,27.90
2017-08-24T12:19:39.779Z,27.90
2017-08-24T12:24:37.678Z,28.00
2017-08-24T12:27:05.978Z,28.10
2017-08-24T12:29:34.328Z,28.10
2017-08-24T12:32:03.435Z,28.10
2017-08-24T12:34:31.702Z,28.10
2017-08-24T12:37:00.012Z,28.10
2017-08-24T12:39:29.819Z,28.30
2017-08-24T12:41:58.090Z,28.30
2017-08-24T12:44:26.390Z,28.30
2017-08-24T12:46:54.712Z,28.30
2017-08-24T12:49:23.007Z,28.30
2017-08-24T12:51:52.481Z,28.30
2017-08-24T12:54:21.551Z,28.40
2017-08-24T12:56:50.599Z,28.30
2017-08-24T12:59:19.299Z,28.30
2017-08-24T13:01:47.619Z,28.30
2017-08-24T13:04:15.882Z,28.30
2017-08-24T13:06:45.690Z,28.20
2017-08-24T13:09:14.018Z,28.30
2017-08-24T13:11:44.083Z,28.10
2017-08-24T13:14:12.410Z,28.00
2017-08-24T13:16:41.486Z,27.90
2017-08-24T13:19:09.768Z,27.60
2017-08-24T13:21:39.644Z,27.40
2017-08-24T13:26:37.871Z,27.30
2017-08-24T13:29:06.228Z,27.20
2017-08-24T13:31:34.559Z,27.20
2017-08-24T13:34:02.863Z,27.20
2017-08-24T13:36:31.167Z,27.10
2017-08-24T13:38:59.498Z,27.10
2017-08-24T13:43:57.304Z,26.90
2017-08-24T13:46:25.614Z,26.80
2017-08-24T13:48:53.908Z,26.80
2017-08-24T13:53:52.157Z,26.70
2017-08-24T13:56:21.193Z,26.80
2017-08-24T13:58:49.463Z,26.70
2017-08-24T14:01:17.803Z,26.70
2017-08-24T14:03:47.582Z,26.70
2017-08-24T14:08:45.822Z,26.30
2017-08-24T14:11:14.158Z,26.30
2017-08-24T14:13:42.467Z,26.20
2017-08-24T14:16:10.781Z,26.10
2017-08-24T14:18:39.067Z,26.10
2017-08-24T14:21:07.390Z,26.10
2017-08-24T14:23:36.865Z,26.10
2017-08-24T14:26:05.161Z,26.00
2017-08-24T14:28:33.482Z,26.10
2017-08-24T14:33:31.715Z,26.00
2017-08-24T14:36:00.027Z,26.00
2017-08-24T14:38:29.103Z,25.90
2017-08-24T14:40:57.375Z,25.90
2017-08-24T14:43:26.827Z,25.90
2017-08-24T14:45:55.539Z,26.00
2017-08-24T14:48:23.832Z,25.90
2017-08-24T14:50:53.678Z,25.90
2017-08-24T14:53:22.000Z,25.80
2017-08-24T14:55:50.271Z,25.90
2017-08-24T14:58:18.557Z,25.80
2017-08-24T15:00:46.890Z,25.70
2017-08-24T15:03:15.162Z,25.70
2017-08-24T15:05:43.439Z,25.60
2017-08-24T15:10:41.287Z,25.60
2017-08-24T15:13:09.579Z,25.50
2017-08-24T15:18:07.857Z,25.50
2017-08-24T15:23:07.243Z,25.40
2017-08-24T15:25:35.546Z,25.30
2017-08-24T15:28:03.812Z,25.30
2017-08-24T15:33:01.663Z,25.30
2017-08-24T15:35:29.980Z,25.20
2017-08-24T15:37:58.309Z,25.30
2017-08-24T15:40:26.582Z,25.20
2017-08-24T15:42:56.364Z,25.20
2017-08-24T15:45:24.827Z,25.20
2017-08-24T15:47:53.129Z,25.20
2017-08-24T15:50:21.399Z,25.20
2017-08-24T15:52:52.145Z,25.20
2017-08-24T15:55:21.550Z,25.10
2017-08-24T15:57:50.591Z,25.10
2017-08-24T16:00:20.061Z,25.00
2017-08-24T16:02:49.839Z,25.00
2017-08-24T16:05:19.263Z,25.00
2017-08-24T16:07:49.103Z,24.90
2017-08-24T16:10:17.390Z,24.80
2017-08-24T16:12:45.664Z,24.80
2017-08-24T16:15:15.138Z,24.80
2017-08-24T16:17:43.819Z,24.70
2017-08-24T16:20:12.096Z,24.70
2017-08-24T16:22:40.464Z,24.80
2017-08-24T16:25:10.267Z,24.70
2017-08-24T16:27:38.576Z,24.80
2017-08-24T16:30:07.314Z,24.70
2017-08-24T16:35:05.120Z,24.70
2017-08-24T16:37:33.758Z,24.60
2017-08-24T16:40:03.551Z,24.60
2017-08-24T16:42:32.594Z,24.60
2017-08-24T16:47:30.899Z,24.60
2017-08-24T16:49:59.176Z,24.60
2017-08-24T16:52:27.534Z,24.60
2017-08-24T16:54:55.811Z,24.60
2017-08-24T16:57:25.242Z,24.60
2017-08-24T17:02:23.534Z,24.50
2017-08-24T17:04:51.814Z,24.50
2017-08-24T17:07:20.435Z,24.50
2017-08-24T17:09:48.698Z,24.50
2017-08-24T17:12:16.980Z,24.40
2017-08-24T17:14:46.392Z,24.40
2017-08-24T17:17:15.063Z,24.40
2017-08-24T17:19:43.334Z,24.40
2017-08-24T17:22:12.424Z,24.40
2017-08-24T17:24:40.707Z,24.30
2017-08-24T17:27:10.970Z,24.30
2017-08-24T17:29:39.356Z,24.30
2017-08-24T17:32:09.154Z,24.30
2017-08-24T17:34:37.441Z,24.20
2017-08-24T17:37:07.306Z,24.20
2017-08-24T17:39:35.602Z,24.10
2017-08-24T17:42:03.915Z,24.10
2017-08-24T17:44:32.255Z,24.00
2017-08-24T17:47:02.042Z,24.00
2017-08-24T17:49:30.322Z,23.90
2017-08-24T17:51:58.951Z,23.90
2017-08-24T17:54:28.363Z,23.80
2017-08-24T17:56:57.060Z,23.80
2017-08-24T17:59:26.887Z,23.90
2017-08-24T18:01:55.203Z,23.90
2017-08-24T18:04:23.484Z,23.80
2017-08-24T18:06:52.871Z,23.90
2017-08-24T18:09:22.671Z,23.90
2017-08-24T18:11:50.939Z,23.80
2017-08-24T18:14:19.391Z,23.80
2017-08-24T18:16:49.210Z,23.70
2017-08-24T18:19:20.639Z,23.70
2017-08-24T18:21:49.310Z,23.70
2017-08-24T18:26:47.679Z,23.60
2017-08-24T18:29:16.352Z,23.60
2017-08-24T18:31:44.697Z,23.60
2017-08-24T18:34:14.527Z,23.60
2017-08-24T18:36:42.878Z,23.60
2017-08-24T18:41:41.153Z,23.60
2017-08-24T18:51:38.881Z,23.50
2017-08-24T18:54:08.750Z,23.50
2017-08-24T18:59:07.039Z,23.40
2017-08-24T19:01:35.387Z,23.40
2017-08-24T19:04:03.742Z,23.30
2017-08-24T19:06:32.022Z,23.30
2017-08-24T19:09:00.327Z,23.20
2017-08-24T19:11:29.810Z,23.10
2017-08-24T19:13:58.087Z,23.10
2017-08-24T19:18:56.687Z,23.00
2017-08-24T19:21:26.482Z,23.00
2017-08-24T19:23:54.764Z,22.90
2017-08-24T19:26:23.111Z,22.80
2017-08-24T19:28:52.160Z,22.80
2017-08-24T19:31:21.598Z,22.80
2017-08-24T19:33:50.687Z,22.70
2017-08-24T19:36:18.962Z,22.60
2017-08-24T19:38:48.440Z,22.60
2017-08-24T19:41:16.768Z,22.60
2017-08-24T19:43:45.042Z,22.50
2017-08-24T19:46:13.334Z,22.40
2017-08-24T19:48:43.236Z,22.40
2017-08-24T19:53:41.482Z,22.40
2017-08-24T19:56:09.829Z,22.40
2017-08-24T19:58:38.133Z,22.30
2017-08-24T20:03:36.798Z,22.30
2017-08-24T20:08:35.016Z,22.20
2017-08-24T20:11:03.347Z,22.10
2017-08-24T20:13:32.429Z,22.10
2017-08-24T20:16:00.704Z,22.00
2017-08-24T20:18:29.074Z,22.00
2017-08-24T20:20:58.491Z,21.90
2017-08-24T20:23:27.167Z,21.90
2017-08-24T20:25:55.516Z,21.80
2017-08-24T20:30:53.292Z,21.70
2017-08-24T20:33:21.624Z,21.70
2017-08-24T20:35:49.898Z,21.70
2017-08-24T20:38:19.679Z,21.60
2017-08-24T20:40:48.024Z,21.60
2017-08-24T20:43:16.304Z,21.60
2017-08-24T20:45:44.578Z,21.50
2017-08-24T20:48:13.706Z,21.50
2017-08-24T20:53:11.939Z,21.50
2017-08-24T20:55:40.325Z,21.40
2017-08-24T20:58:10.153Z,21.40
2017-08-24T21:00:38.452Z,21.40
2017-08-24T21:03:06.840Z,21.30
2017-08-24T21:05:36.686Z,21.30
2017-08-24T21:08:05.052Z,21.30
2017-08-24T21:13:02.976Z,21.20
2017-08-24T21:15:32.024Z,21.20
2017-08-24T21:18:01.516Z,21.10
2017-08-24T21:20:29.788Z,21.00
2017-08-24T21:22:58.071Z,21.00
2017-08-24T21:27:56.337Z,20.90
2017-08-24T21:30:24.630Z,20.90
2017-08-24T21:32:53.724Z,20.80
2017-08-24T21:35:22.005Z,20.80
2017-08-24T21:37:50.283Z,20.70
2017-08-24T21:40:18.606Z,20.60
2017-08-24T21:42:46.877Z,20.60
2017-08-24T21:45:16.286Z,20.40
2017-08-24T21:47:45.385Z,20.40
2017-08-24T21:50:14.427Z,20.30
2017-08-24T21:52:43.467Z,20.30
2017-08-24T21:55:11.812Z,20.20
2017-08-24T21:57:41.222Z,20.10
2017-08-24T22:00:09.514Z,20.10
2017-08-24T22:02:37.867Z,20.10
2017-08-24T22:05:06.159Z,20.10
2017-08-24T22:07:36.141Z,20.10
2017-08-24T22:10:04.499Z,20.00
2017-08-24T22:12:32.770Z,19.90
2017-08-24T22:15:01.815Z,19.90
2017-08-24T22:17:30.135Z,19.80
2017-08-24T22:19:59.179Z,19.70
2017-08-24T22:22:28.218Z,19.60
2017-08-24T22:24:56.648Z,19.60
2017-08-24T22:27:24.972Z,19.50
2017-08-24T22:29:54.389Z,19.50
2017-08-24T22:32:22.716Z,19.40
2017-08-24T22:34:50.991Z,19.30
2017-08-24T22:37:19.266Z,19.30
2017-08-24T22:39:48.271Z,19.30
2017-08-24T22:42:17.315Z,19.20
2017-08-24T22:44:45.982Z,19.20
2017-08-24T22:47:14.316Z,19.10
2017-08-24T22:49:43.357Z,19.10
2017-08-24T22:54:47.258Z,19.10
2017-08-24T22:57:21.102Z,19.10
2017-08-24T22:59:55.466Z,19.00
2017-08-24T23:02:29.460Z,19.00
2017-08-24T23:04:58.199Z,19.00
2017-08-24T23:07:26.475Z,19.00
2017-08-24T23:09:54.766Z,18.90
2017-08-24T23:12:23.118Z,18.90
2017-08-24T23:14:51.407Z,18.90
2017-08-24T23:17:20.447Z,18.80
2017-08-24T23:19:49.550Z,18.90
2017-08-24T23:22:17.825Z,18.80
2017-08-24T23:24:47.234Z,18.80
2017-08-24T23:27:15.660Z,18.70
2017-08-24T23:29:43.934Z,18.70
2017-08-24T23:32:12.210Z,18.60
2017-08-24T23:34:40.563Z,18.60
2017-08-24T23:37:09.251Z,18.60
2017-08-24T23:39:37.555Z,18.60
2017-08-24T23:42:05.925Z,18.60
2017-08-24T23:44:35.720Z,18.50
2017-08-24T23:47:04.024Z,18.50
2017-08-24T23:49:32.447Z,18.50
2017-08-24T23:52:00.732Z,18.40
2017-08-24T23:54:29.010Z,18.40
2017-08-24T23:56:57.338Z,18.40
2017-08-24T23:59:26.750Z,18.30
